sensor_id;sensor_type;location;lat;lon;timestamp;P1;durP1;ratioP1;P2;durP2;ratioP2
42124;SDS011;27787;44.594;11.046;2022-08-11T00:02:10;2.50;;;1.50;;
42124;SDS011;27787;44.594;11.046;2022-08-11T00:04:55;2.37;;;1.60;;
42124;SDS011;27787;44.594;11.046;2022-08-11T00:10:30;5.28;;;1.90;;
42124;SDS011;27787;44.594;11.046;2022-08-11T00:13:14;3.92;;;1.85;;
42124;SDS011;27787;44.594;11.046;2022-08-11T00:15:58;4.67;;;1.90;;
42124;SDS011;27787;44.594;11.046;2022-08-11T00:18:46;2.55;;;1.65;;
42124;SDS011;27787;44.594;11.046;2022-08-11T00:21:33;6.15;;;2.10;;
42124;SDS011;27787;44.594;11.046;2022-08-11T00:24:24;4.35;;;1.98;;
42124;SDS011;27787;44.594;11.046;2022-08-11T00:27:15;4.60;;;1.88;;
42124;SDS011;27787;44.594;11.046;2022-08-11T00:29:59;5.00;;;2.03;;
42124;SDS011;27787;44.594;11.046;2022-08-11T00:32:45;3.13;;;1.83;;
42124;SDS011;27787;44.594;11.046;2022-08-11T00:35:37;6.57;;;2.10;;
42124;SDS011;27787;44.594;11.046;2022-08-11T00:38:23;7.90;;;2.13;;
42124;SDS011;27787;44.594;11.046;2022-08-11T00:50:28;5.35;;;2.22;;
42124;SDS011;27787;44.594;11.046;2022-08-11T00:53:26;2.30;;;1.80;;
42124;SDS011;27787;44.594;11.046;2022-08-11T00:56:44;4.28;;;1.95;;
42124;SDS011;27787;44.594;11.046;2022-08-11T01:00:40;7.63;;;2.10;;
42124;SDS011;27787;44.594;11.046;2022-08-11T01:40:08;5.47;;;2.10;;
42124;SDS011;27787;44.594;11.046;2022-08-11T01:43:06;3.20;;;1.70;;
42124;SDS011;27787;44.594;11.046;2022-08-11T01:46:28;7.45;;;2.22;;
42124;SDS011;27787;44.594;11.046;2022-08-11T01:49:24;3.25;;;1.90;;
42124;SDS011;27787;44.594;11.046;2022-08-11T01:52:18;3.97;;;2.30;;
42124;SDS011;27787;44.594;11.046;2022-08-11T01:55:20;3.88;;;2.45;;
42124;SDS011;27787;44.594;11.046;2022-08-11T01:58:25;4.10;;;2.47;;
42124;SDS011;27787;44.594;11.046;2022-08-11T02:04:22;4.65;;;1.90;;
42124;SDS011;27787;44.594;11.046;2022-08-11T02:13:16;4.47;;;1.98;;
42124;SDS011;27787;44.594;11.046;2022-08-11T02:16:33;5.10;;;2.03;;
42124;SDS011;27787;44.594;11.046;2022-08-11T02:20:06;6.93;;;2.05;;
42124;SDS011;27787;44.594;11.046;2022-08-11T02:26:45;3.80;;;2.33;;
42124;SDS011;27787;44.594;11.046;2022-08-11T02:29:37;7.18;;;2.33;;
42124;SDS011;27787;44.594;11.046;2022-08-11T02:32:50;3.60;;;1.85;;
42124;SDS011;27787;44.594;11.046;2022-08-11T02:36:05;3.90;;;1.90;;
42124;SDS011;27787;44.594;11.046;2022-08-11T02:39:02;3.15;;;1.80;;
42124;SDS011;27787;44.594;11.046;2022-08-11T02:45:07;4.88;;;2.13;;
42124;SDS011;27787;44.594;11.046;2022-08-11T02:48:10;5.65;;;2.20;;
42124;SDS011;27787;44.594;11.046;2022-08-11T02:54:20;3.88;;;2.08;;
42124;SDS011;27787;44.594;11.046;2022-08-11T03:00:10;5.57;;;2.05;;
42124;SDS011;27787;44.594;11.046;2022-08-11T03:06:58;3.47;;;2.00;;
42124;SDS011;27787;44.594;11.046;2022-08-11T03:09:13;3.00;;;2.03;;
42124;SDS011;27787;44.594;11.046;2022-08-11T03:12:14;11.70;;;2.63;;
42124;SDS011;27787;44.594;11.046;2022-08-11T03:15:27;3.45;;;2.10;;
42124;SDS011;27787;44.594;11.046;2022-08-11T03:18:41;9.27;;;2.20;;
42124;SDS011;27787;44.594;11.046;2022-08-11T03:21:36;5.00;;;2.38;;
42124;SDS011;27787;44.594;11.046;2022-08-11T03:31:05;3.22;;;1.88;;
42124;SDS011;27787;44.594;11.046;2022-08-11T03:34:03;7.60;;;2.00;;
42124;SDS011;27787;44.594;11.046;2022-08-11T03:36:58;6.55;;;2.00;;
42124;SDS011;27787;44.594;11.046;2022-08-11T03:39:56;2.90;;;1.80;;
42124;SDS011;27787;44.594;11.046;2022-08-11T03:42:57;5.13;;;2.10;;
42124;SDS011;27787;44.594;11.046;2022-08-11T03:51:47;7.22;;;2.03;;
42124;SDS011;27787;44.594;11.046;2022-08-11T04:11:00;5.28;;;1.65;;
42124;SDS011;27787;44.594;11.046;2022-08-11T04:29:36;2.25;;;1.58;;
42124;SDS011;27787;44.594;11.046;2022-08-11T04:35:49;3.92;;;1.90;;
42124;SDS011;27787;44.594;11.046;2022-08-11T04:45:19;4.35;;;2.33;;
42124;SDS011;27787;44.594;11.046;2022-08-11T05:09:18;2.83;;;2.22;;
42124;SDS011;27787;44.594;11.046;2022-08-11T05:12:24;5.30;;;1.88;;
42124;SDS011;27787;44.594;11.046;2022-08-11T05:15:23;4.75;;;2.38;;
42124;SDS011;27787;44.594;11.046;2022-08-11T05:21:54;4.60;;;2.58;;
42124;SDS011;27787;44.594;11.046;2022-08-11T05:28:11;8.15;;;2.30;;
42124;SDS011;27787;44.594;11.046;2022-08-11T05:31:18;7.50;;;2.95;;
42124;SDS011;27787;44.594;11.046;2022-08-11T05:34:33;4.95;;;2.42;;
42124;SDS011;27787;44.594;11.046;2022-08-11T05:40:21;11.63;;;3.42;;
42124;SDS011;27787;44.594;11.046;2022-08-11T05:43:25;12.20;;;2.95;;
42124;SDS011;27787;44.594;11.046;2022-08-11T05:46:28;12.02;;;3.35;;
42124;SDS011;27787;44.594;11.046;2022-08-11T05:49:40;6.05;;;3.60;;
42124;SDS011;27787;44.594;11.046;2022-08-11T05:52:46;8.07;;;3.60;;
42124;SDS011;27787;44.594;11.046;2022-08-11T05:55:49;8.05;;;3.17;;
42124;SDS011;27787;44.594;11.046;2022-08-11T05:58:53;6.40;;;3.72;;
42124;SDS011;27787;44.594;11.046;2022-08-11T06:01:39;5.35;;;3.65;;
42124;SDS011;27787;44.594;11.046;2022-08-11T06:04:26;6.28;;;3.40;;
42124;SDS011;27787;44.594;11.046;2022-08-11T06:07:12;8.45;;;3.83;;
42124;SDS011;27787;44.594;11.046;2022-08-11T06:10:00;4.85;;;3.58;;
42124;SDS011;27787;44.594;11.046;2022-08-11T06:12:49;12.80;;;4.00;;
42124;SDS011;27787;44.594;11.046;2022-08-11T06:15:45;6.13;;;3.53;;
42124;SDS011;27787;44.594;11.046;2022-08-11T06:18:31;9.35;;;2.88;;
42124;SDS011;27787;44.594;11.046;2022-08-11T06:21:16;4.28;;;3.00;;
42124;SDS011;27787;44.594;11.046;2022-08-11T06:24:19;7.57;;;3.03;;
42124;SDS011;27787;44.594;11.046;2022-08-11T06:27:04;5.28;;;2.70;;
42124;SDS011;27787;44.594;11.046;2022-08-11T06:29:51;4.43;;;2.90;;
42124;SDS011;27787;44.594;11.046;2022-08-11T06:32:43;7.10;;;2.95;;
42124;SDS011;27787;44.594;11.046;2022-08-11T06:35:34;8.10;;;3.13;;
42124;SDS011;27787;44.594;11.046;2022-08-11T06:38:45;6.30;;;3.00;;
42124;SDS011;27787;44.594;11.046;2022-08-11T06:41:52;5.95;;;2.67;;
42124;SDS011;27787;44.594;11.046;2022-08-11T06:47:53;4.88;;;2.92;;
42124;SDS011;27787;44.594;11.046;2022-08-11T06:50:39;5.60;;;3.00;;
42124;SDS011;27787;44.594;11.046;2022-08-11T06:53:43;9.65;;;3.08;;
42124;SDS011;27787;44.594;11.046;2022-08-11T06:56:31;5.68;;;2.60;;
42124;SDS011;27787;44.594;11.046;2022-08-11T06:59:39;6.47;;;3.10;;
42124;SDS011;27787;44.594;11.046;2022-08-11T07:03:07;5.95;;;2.80;;
42124;SDS011;27787;44.594;11.046;2022-08-11T07:05:59;3.55;;;2.30;;
42124;SDS011;27787;44.594;11.046;2022-08-11T07:09:06;5.85;;;2.80;;
42124;SDS011;27787;44.594;11.046;2022-08-11T07:12:39;6.22;;;2.80;;
42124;SDS011;27787;44.594;11.046;2022-08-11T07:15:44;4.65;;;2.58;;
42124;SDS011;27787;44.594;11.046;2022-08-11T07:18:34;6.43;;;2.63;;
42124;SDS011;27787;44.594;11.046;2022-08-11T07:21:39;9.48;;;3.25;;
42124;SDS011;27787;44.594;11.046;2022-08-11T07:28:29;3.40;;;2.30;;
42124;SDS011;27787;44.594;11.046;2022-08-11T07:34:24;5.95;;;2.47;;
42124;SDS011;27787;44.594;11.046;2022-08-11T07:37:15;5.32;;;2.10;;
42124;SDS011;27787;44.594;11.046;2022-08-11T07:40:02;7.07;;;2.60;;
42124;SDS011;27787;44.594;11.046;2022-08-11T07:42:47;2.92;;;2.03;;
42124;SDS011;27787;44.594;11.046;2022-08-11T07:45:33;4.30;;;2.08;;
42124;SDS011;27787;44.594;11.046;2022-08-11T07:48:36;4.30;;;2.20;;
42124;SDS011;27787;44.594;11.046;2022-08-11T07:51:43;6.75;;;2.38;;
42124;SDS011;27787;44.594;11.046;2022-08-11T07:54:46;5.70;;;2.30;;
42124;SDS011;27787;44.594;11.046;2022-08-11T07:57:31;4.83;;;2.30;;
42124;SDS011;27787;44.594;11.046;2022-08-11T08:00:35;3.90;;;2.53;;
42124;SDS011;27787;44.594;11.046;2022-08-11T08:03:44;2.70;;;2.10;;
42124;SDS011;27787;44.594;11.046;2022-08-11T08:06:48;3.10;;;2.33;;
42124;SDS011;27787;44.594;11.046;2022-08-11T08:09:51;3.17;;;2.08;;
42124;SDS011;27787;44.594;11.046;2022-08-11T08:12:54;2.70;;;1.88;;
42124;SDS011;27787;44.594;11.046;2022-08-11T08:15:58;4.70;;;2.00;;
42124;SDS011;27787;44.594;11.046;2022-08-11T08:19:01;3.92;;;2.13;;
42124;SDS011;27787;44.594;11.046;2022-08-11T08:21:46;6.53;;;2.28;;
42124;SDS011;27787;44.594;11.046;2022-08-11T08:24:31;4.78;;;2.35;;
42124;SDS011;27787;44.594;11.046;2022-08-11T08:27:15;4.70;;;2.22;;
42124;SDS011;27787;44.594;11.046;2022-08-11T08:30:03;9.07;;;2.38;;
42124;SDS011;27787;44.594;11.046;2022-08-11T08:33:06;2.97;;;2.22;;
42124;SDS011;27787;44.594;11.046;2022-08-11T08:35:59;3.83;;;1.90;;
42124;SDS011;27787;44.594;11.046;2022-08-11T08:38:55;4.55;;;2.55;;
42124;SDS011;27787;44.594;11.046;2022-08-11T08:41:39;3.42;;;2.20;;
42124;SDS011;27787;44.594;11.046;2022-08-11T08:44:26;3.90;;;1.77;;
42124;SDS011;27787;44.594;11.046;2022-08-11T08:47:13;2.67;;;2.03;;
42124;SDS011;27787;44.594;11.046;2022-08-11T08:50:03;6.90;;;2.40;;
42124;SDS011;27787;44.594;11.046;2022-08-11T08:52:51;3.92;;;2.35;;
42124;SDS011;27787;44.594;11.046;2022-08-11T08:55:41;3.42;;;2.35;;
42124;SDS011;27787;44.594;11.046;2022-08-11T08:58:28;4.97;;;2.40;;
42124;SDS011;27787;44.594;11.046;2022-08-11T09:01:14;7.45;;;2.28;;
42124;SDS011;27787;44.594;11.046;2022-08-11T09:04:02;2.95;;;2.33;;
42124;SDS011;27787;44.594;11.046;2022-08-11T09:06:50;3.22;;;1.98;;
42124;SDS011;27787;44.594;11.046;2022-08-11T09:09:35;4.38;;;2.50;;
42124;SDS011;27787;44.594;11.046;2022-08-11T09:12:20;3.72;;;2.38;;
42124;SDS011;27787;44.594;11.046;2022-08-11T09:15:09;5.38;;;2.28;;
42124;SDS011;27787;44.594;11.046;2022-08-11T09:17:56;2.88;;;2.05;;
42124;SDS011;27787;44.594;11.046;2022-08-11T09:20:48;3.13;;;2.15;;
42124;SDS011;27787;44.594;11.046;2022-08-11T09:23:33;3.97;;;2.55;;
42124;SDS011;27787;44.594;11.046;2022-08-11T09:26:37;7.53;;;2.80;;
42124;SDS011;27787;44.594;11.046;2022-08-11T09:29:50;3.38;;;1.98;;
42124;SDS011;27787;44.594;11.046;2022-08-11T09:32:36;4.60;;;2.15;;
42124;SDS011;27787;44.594;11.046;2022-08-11T09:35:21;3.75;;;2.00;;
42124;SDS011;27787;44.594;11.046;2022-08-11T09:38:06;7.30;;;2.30;;
42124;SDS011;27787;44.594;11.046;2022-08-11T09:41:12;3.60;;;2.10;;
42124;SDS011;27787;44.594;11.046;2022-08-11T09:43:57;5.57;;;2.45;;
42124;SDS011;27787;44.594;11.046;2022-08-11T09:47:02;3.55;;;2.10;;
42124;SDS011;27787;44.594;11.046;2022-08-11T09:49:54;3.72;;;2.03;;
42124;SDS011;27787;44.594;11.046;2022-08-11T09:52:42;6.05;;;2.53;;
42124;SDS011;27787;44.594;11.046;2022-08-11T09:55:28;4.63;;;2.38;;
42124;SDS011;27787;44.594;11.046;2022-08-11T09:58:13;2.70;;;1.75;;
42124;SDS011;27787;44.594;11.046;2022-08-11T10:00:59;5.97;;;1.90;;
42124;SDS011;27787;44.594;11.046;2022-08-11T10:03:45;4.38;;;2.42;;
42124;SDS011;27787;44.594;11.046;2022-08-11T10:06:30;4.88;;;1.77;;
42124;SDS011;27787;44.594;11.046;2022-08-11T10:12:24;2.75;;;1.92;;
42124;SDS011;27787;44.594;11.046;2022-08-11T10:15:15;4.50;;;2.30;;
42124;SDS011;27787;44.594;11.046;2022-08-11T10:18:28;6.85;;;1.80;;
42124;SDS011;27787;44.594;11.046;2022-08-11T10:24:20;2.30;;;1.77;;
42124;SDS011;27787;44.594;11.046;2022-08-11T10:27:23;5.97;;;1.70;;
42124;SDS011;27787;44.594;11.046;2022-08-11T10:30:08;1.60;;;1.10;;
42124;SDS011;27787;44.594;11.046;2022-08-11T10:33:11;2.50;;;1.48;;
42124;SDS011;27787;44.594;11.046;2022-08-11T10:36:16;6.78;;;1.52;;
42124;SDS011;27787;44.594;11.046;2022-08-11T10:39:04;5.78;;;1.50;;
42124;SDS011;27787;44.594;11.046;2022-08-11T10:41:49;3.53;;;1.90;;
42124;SDS011;27787;44.594;11.046;2022-08-11T10:44:54;2.30;;;1.65;;
42124;SDS011;27787;44.594;11.046;2022-08-11T10:47:40;3.17;;;1.98;;
42124;SDS011;27787;44.594;11.046;2022-08-11T10:50:24;2.25;;;1.55;;
42124;SDS011;27787;44.594;11.046;2022-08-11T10:53:27;5.85;;;1.95;;
42124;SDS011;27787;44.594;11.046;2022-08-11T10:56:34;4.78;;;1.88;;
42124;SDS011;27787;44.594;11.046;2022-08-11T10:59:38;5.18;;;1.55;;
42124;SDS011;27787;44.594;11.046;2022-08-11T11:02:25;4.57;;;1.73;;
42124;SDS011;27787;44.594;11.046;2022-08-11T11:05:13;1.80;;;1.45;;
42124;SDS011;27787;44.594;11.046;2022-08-11T11:08:13;2.20;;;1.70;;
42124;SDS011;27787;44.594;11.046;2022-08-11T11:11:18;3.28;;;1.38;;
42124;SDS011;27787;44.594;11.046;2022-08-11T11:14:04;3.65;;;1.77;;
42124;SDS011;27787;44.594;11.046;2022-08-11T11:17:08;3.30;;;1.50;;
42124;SDS011;27787;44.594;11.046;2022-08-11T11:26:36;1.88;;;1.38;;
42124;SDS011;27787;44.594;11.046;2022-08-11T11:35:25;2.63;;;1.60;;
42124;SDS011;27787;44.594;11.046;2022-08-11T11:38:19;2.00;;;1.52;;
42124;SDS011;27787;44.594;11.046;2022-08-11T11:44:07;1.60;;;1.35;;
42124;SDS011;27787;44.594;11.046;2022-08-11T11:46:55;4.47;;;1.60;;
42124;SDS011;27787;44.594;11.046;2022-08-11T11:49:42;4.57;;;1.58;;
42124;SDS011;27787;44.594;11.046;2022-08-11T11:52:27;5.20;;;1.60;;
42124;SDS011;27787;44.594;11.046;2022-08-11T11:55:11;1.85;;;1.50;;
42124;SDS011;27787;44.594;11.046;2022-08-11T11:57:56;1.85;;;1.50;;
42124;SDS011;27787;44.594;11.046;2022-08-11T12:01:01;3.08;;;1.60;;
42124;SDS011;27787;44.594;11.046;2022-08-11T12:04:03;2.70;;;1.80;;
42124;SDS011;27787;44.594;11.046;2022-08-11T12:06:49;2.67;;;1.65;;
42124;SDS011;27787;44.594;11.046;2022-08-11T12:09:54;2.03;;;1.67;;
42124;SDS011;27787;44.594;11.046;2022-08-11T12:12:40;4.35;;;1.60;;
42124;SDS011;27787;44.594;11.046;2022-08-11T12:15:44;1.83;;;1.45;;
42124;SDS011;27787;44.594;11.046;2022-08-11T12:18:30;2.03;;;1.55;;
42124;SDS011;27787;44.594;11.046;2022-08-11T12:21:16;3.15;;;1.58;;
42124;SDS011;27787;44.594;11.046;2022-08-11T12:27:05;4.60;;;1.70;;
42124;SDS011;27787;44.594;11.046;2022-08-11T12:30:05;4.60;;;1.73;;
42124;SDS011;27787;44.594;11.046;2022-08-11T12:32:51;2.22;;;1.63;;
42124;SDS011;27787;44.594;11.046;2022-08-11T12:35:36;1.92;;;1.33;;
42124;SDS011;27787;44.594;11.046;2022-08-11T12:41:06;6.97;;;1.50;;
42124;SDS011;27787;44.594;11.046;2022-08-11T12:44:09;2.00;;;1.60;;
42124;SDS011;27787;44.594;11.046;2022-08-11T12:47:24;5.80;;;1.60;;
42124;SDS011;27787;44.594;11.046;2022-08-11T12:50:29;4.30;;;1.40;;
42124;SDS011;27787;44.594;11.046;2022-08-11T12:53:33;2.83;;;1.70;;
42124;SDS011;27787;44.594;11.046;2022-08-11T12:56:22;3.42;;;1.45;;
42124;SDS011;27787;44.594;11.046;2022-08-11T12:59:27;2.65;;;1.48;;
42124;SDS011;27787;44.594;11.046;2022-08-11T13:02:31;2.20;;;1.60;;
42124;SDS011;27787;44.594;11.046;2022-08-11T13:05:35;1.75;;;1.30;;
42124;SDS011;27787;44.594;11.046;2022-08-11T13:08:24;4.47;;;1.55;;
42124;SDS011;27787;44.594;11.046;2022-08-11T13:11:11;3.55;;;1.40;;
42124;SDS011;27787;44.594;11.046;2022-08-11T13:14:17;1.60;;;1.40;;
42124;SDS011;27787;44.594;11.046;2022-08-11T13:17:02;2.03;;;1.42;;
42124;SDS011;27787;44.594;11.046;2022-08-11T13:20:08;2.72;;;1.70;;
42124;SDS011;27787;44.594;11.046;2022-08-11T13:22:54;2.10;;;1.60;;
42124;SDS011;27787;44.594;11.046;2022-08-11T13:25:41;4.55;;;1.55;;
42124;SDS011;27787;44.594;11.046;2022-08-11T13:28:26;2.55;;;1.42;;
42124;SDS011;27787;44.594;11.046;2022-08-11T13:31:11;6.63;;;1.80;;
42124;SDS011;27787;44.594;11.046;2022-08-11T13:33:56;2.75;;;1.40;;
42124;SDS011;27787;44.594;11.046;2022-08-11T13:36:41;2.20;;;1.60;;
42124;SDS011;27787;44.594;11.046;2022-08-11T13:42:14;1.98;;;1.50;;
42124;SDS011;27787;44.594;11.046;2022-08-11T13:45:02;1.98;;;1.42;;
42124;SDS011;27787;44.594;11.046;2022-08-11T13:47:56;8.07;;;2.15;;
42124;SDS011;27787;44.594;11.046;2022-08-11T13:50:43;3.30;;;1.63;;
42124;SDS011;27787;44.594;11.046;2022-08-11T13:53:47;4.32;;;1.90;;
42124;SDS011;27787;44.594;11.046;2022-08-11T13:56:32;3.00;;;1.65;;
42124;SDS011;27787;44.594;11.046;2022-08-11T13:59:18;3.28;;;1.92;;
42124;SDS011;27787;44.594;11.046;2022-08-11T14:02:06;2.90;;;1.70;;
42124;SDS011;27787;44.594;11.046;2022-08-11T14:04:56;2.50;;;1.48;;
42124;SDS011;27787;44.594;11.046;2022-08-11T14:07:46;3.40;;;1.60;;
42124;SDS011;27787;44.594;11.046;2022-08-11T14:10:34;1.90;;;1.52;;
42124;SDS011;27787;44.594;11.046;2022-08-11T14:13:21;5.00;;;1.85;;
42124;SDS011;27787;44.594;11.046;2022-08-11T14:16:23;3.53;;;1.48;;
42124;SDS011;27787;44.594;11.046;2022-08-11T14:19:25;3.15;;;1.70;;
42124;SDS011;27787;44.594;11.046;2022-08-11T14:22:10;2.25;;;1.75;;
42124;SDS011;27787;44.594;11.046;2022-08-11T14:24:58;2.95;;;1.60;;
42124;SDS011;27787;44.594;11.046;2022-08-11T14:27:43;2.30;;;1.52;;
42124;SDS011;27787;44.594;11.046;2022-08-11T14:30:28;2.40;;;1.40;;
42124;SDS011;27787;44.594;11.046;2022-08-11T14:33:31;1.77;;;1.40;;
42124;SDS011;27787;44.594;11.046;2022-08-11T14:36:17;3.17;;;1.40;;
42124;SDS011;27787;44.594;11.046;2022-08-11T14:39:05;1.40;;;1.30;;
42124;SDS011;27787;44.594;11.046;2022-08-11T14:41:56;2.72;;;1.58;;
42124;SDS011;27787;44.594;11.046;2022-08-11T14:45:02;1.65;;;1.30;;
42124;SDS011;27787;44.594;11.046;2022-08-11T14:48:08;3.50;;;1.95;;
42124;SDS011;27787;44.594;11.046;2022-08-11T14:50:53;2.33;;;1.75;;
42124;SDS011;27787;44.594;11.046;2022-08-11T14:53:39;4.90;;;1.70;;
42124;SDS011;27787;44.594;11.046;2022-08-11T14:56:24;2.35;;;1.52;;
42124;SDS011;27787;44.594;11.046;2022-08-11T14:59:20;5.40;;;1.52;;
42124;SDS011;27787;44.594;11.046;2022-08-11T15:02:05;3.67;;;1.30;;
42124;SDS011;27787;44.594;11.046;2022-08-11T15:05:08;1.83;;;1.50;;
42124;SDS011;27787;44.594;11.046;2022-08-11T15:07:53;3.53;;;2.08;;
42124;SDS011;27787;44.594;11.046;2022-08-11T15:10:41;1.67;;;1.45;;
42124;SDS011;27787;44.594;11.046;2022-08-11T15:13:26;2.85;;;1.73;;
42124;SDS011;27787;44.594;11.046;2022-08-11T15:16:11;2.28;;;1.48;;
42124;SDS011;27787;44.594;11.046;2022-08-11T15:19:14;2.38;;;1.40;;
42124;SDS011;27787;44.594;11.046;2022-08-11T15:22:01;2.70;;;1.63;;
42124;SDS011;27787;44.594;11.046;2022-08-11T15:25:04;2.28;;;1.40;;
42124;SDS011;27787;44.594;11.046;2022-08-11T15:27:49;2.33;;;1.45;;
42124;SDS011;27787;44.594;11.046;2022-08-11T15:31:08;2.03;;;1.38;;
42124;SDS011;27787;44.594;11.046;2022-08-11T15:34:13;1.98;;;1.52;;
42124;SDS011;27787;44.594;11.046;2022-08-11T15:37:18;4.03;;;1.75;;
42124;SDS011;27787;44.594;11.046;2022-08-11T15:43:18;1.60;;;1.40;;
42124;SDS011;27787;44.594;11.046;2022-08-11T15:46:28;2.08;;;1.73;;
42124;SDS011;27787;44.594;11.046;2022-08-11T15:49:22;3.08;;;1.55;;
42124;SDS011;27787;44.594;11.046;2022-08-11T15:52:15;2.13;;;1.45;;
42124;SDS011;27787;44.594;11.046;2022-08-11T15:55:03;3.50;;;1.58;;
42124;SDS011;27787;44.594;11.046;2022-08-11T15:57:50;2.60;;;1.50;;
42124;SDS011;27787;44.594;11.046;2022-08-11T16:00:56;2.58;;;1.50;;
42124;SDS011;27787;44.594;11.046;2022-08-11T16:04:00;4.63;;;1.88;;
42124;SDS011;27787;44.594;11.046;2022-08-11T16:06:56;2.63;;;1.35;;
42124;SDS011;27787;44.594;11.046;2022-08-11T16:09:46;1.75;;;1.40;;
42124;SDS011;27787;44.594;11.046;2022-08-11T16:12:38;4.80;;;1.65;;
42124;SDS011;27787;44.594;11.046;2022-08-11T16:15:24;1.67;;;1.50;;
42124;SDS011;27787;44.594;11.046;2022-08-11T16:18:29;4.60;;;1.85;;
42124;SDS011;27787;44.594;11.046;2022-08-11T16:21:26;2.08;;;1.63;;
42124;SDS011;27787;44.594;11.046;2022-08-11T16:24:16;7.93;;;1.60;;
42124;SDS011;27787;44.594;11.046;2022-08-11T16:27:03;4.97;;;1.42;;
42124;SDS011;27787;44.594;11.046;2022-08-11T16:29:49;1.63;;;1.40;;
42124;SDS011;27787;44.594;11.046;2022-08-11T16:32:35;3.67;;;1.58;;
42124;SDS011;27787;44.594;11.046;2022-08-11T16:35:23;2.45;;;1.80;;
42124;SDS011;27787;44.594;11.046;2022-08-11T16:38:26;1.98;;;1.38;;
42124;SDS011;27787;44.594;11.046;2022-08-11T16:41:18;3.55;;;1.30;;
42124;SDS011;27787;44.594;11.046;2022-08-11T16:44:25;1.98;;;1.40;;
42124;SDS011;27787;44.594;11.046;2022-08-11T16:47:29;2.72;;;1.60;;
42124;SDS011;27787;44.594;11.046;2022-08-11T16:50:13;2.75;;;1.55;;
42124;SDS011;27787;44.594;11.046;2022-08-11T16:52:58;5.75;;;1.35;;
42124;SDS011;27787;44.594;11.046;2022-08-11T16:55:43;3.85;;;1.48;;
42124;SDS011;27787;44.594;11.046;2022-08-11T16:58:32;2.25;;;1.90;;
42124;SDS011;27787;44.594;11.046;2022-08-11T17:02:01;2.60;;;1.38;;
42124;SDS011;27787;44.594;11.046;2022-08-11T17:04:49;1.92;;;1.40;;
42124;SDS011;27787;44.594;11.046;2022-08-11T17:07:55;3.60;;;1.60;;
42124;SDS011;27787;44.594;11.046;2022-08-11T17:11:02;2.95;;;1.40;;
42124;SDS011;27787;44.594;11.046;2022-08-11T17:14:10;2.05;;;1.38;;
42124;SDS011;27787;44.594;11.046;2022-08-11T17:16:58;3.78;;;1.27;;
42124;SDS011;27787;44.594;11.046;2022-08-11T17:19:51;1.90;;;1.35;;
42124;SDS011;27787;44.594;11.046;2022-08-11T17:22:37;2.50;;;1.70;;
42124;SDS011;27787;44.594;11.046;2022-08-11T17:25:45;4.35;;;1.40;;
42124;SDS011;27787;44.594;11.046;2022-08-11T17:28:34;1.98;;;1.60;;
42124;SDS011;27787;44.594;11.046;2022-08-11T17:31:19;1.95;;;1.30;;
42124;SDS011;27787;44.594;11.046;2022-08-11T17:34:24;2.00;;;1.40;;
42124;SDS011;27787;44.594;11.046;2022-08-11T17:37:28;1.92;;;1.33;;
42124;SDS011;27787;44.594;11.046;2022-08-11T17:40:16;2.55;;;1.40;;
42124;SDS011;27787;44.594;11.046;2022-08-11T17:43:07;2.88;;;1.35;;
42124;SDS011;27787;44.594;11.046;2022-08-11T17:46:10;3.33;;;1.23;;
42124;SDS011;27787;44.594;11.046;2022-08-11T17:49:13;3.17;;;1.75;;
42124;SDS011;27787;44.594;11.046;2022-08-11T17:51:59;3.72;;;1.40;;
42124;SDS011;27787;44.594;11.046;2022-08-11T17:55:02;2.88;;;1.40;;
42124;SDS011;27787;44.594;11.046;2022-08-11T17:58:06;2.28;;;1.30;;
42124;SDS011;27787;44.594;11.046;2022-08-11T18:01:10;2.17;;;1.60;;
42124;SDS011;27787;44.594;11.046;2022-08-11T18:03:55;3.13;;;1.30;;
42124;SDS011;27787;44.594;11.046;2022-08-11T18:06:42;2.70;;;1.42;;
42124;SDS011;27787;44.594;11.046;2022-08-11T18:09:28;2.25;;;1.20;;
42124;SDS011;27787;44.594;11.046;2022-08-11T18:12:30;4.85;;;1.40;;
42124;SDS011;27787;44.594;11.046;2022-08-11T18:15:33;1.38;;;1.23;;
42124;SDS011;27787;44.594;11.046;2022-08-11T18:18:41;3.85;;;1.30;;
42124;SDS011;27787;44.594;11.046;2022-08-11T18:21:44;5.10;;;1.83;;
42124;SDS011;27787;44.594;11.046;2022-08-11T18:25:00;4.83;;;1.30;;
42124;SDS011;27787;44.594;11.046;2022-08-11T18:28:09;6.15;;;1.50;;
42124;SDS011;27787;44.594;11.046;2022-08-11T18:31:14;5.88;;;1.23;;
42124;SDS011;27787;44.594;11.046;2022-08-11T18:34:20;4.15;;;1.60;;
42124;SDS011;27787;44.594;11.046;2022-08-11T18:37:31;2.65;;;1.30;;
42124;SDS011;27787;44.594;11.046;2022-08-11T18:40:37;3.72;;;1.60;;
42124;SDS011;27787;44.594;11.046;2022-08-11T18:43:41;5.57;;;1.42;;
42124;SDS011;27787;44.594;11.046;2022-08-11T18:49:52;1.98;;;1.17;;
42124;SDS011;27787;44.594;11.046;2022-08-11T18:52:56;3.17;;;1.38;;
42124;SDS011;27787;44.594;11.046;2022-08-11T18:56:03;2.38;;;1.30;;
42124;SDS011;27787;44.594;11.046;2022-08-11T18:59:06;6.65;;;1.60;;
42124;SDS011;27787;44.594;11.046;2022-08-11T19:02:11;5.70;;;1.65;;
42124;SDS011;27787;44.594;11.046;2022-08-11T19:05:16;3.75;;;1.50;;
42124;SDS011;27787;44.594;11.046;2022-08-11T19:08:21;5.65;;;1.50;;
42124;SDS011;27787;44.594;11.046;2022-08-11T19:11:26;6.28;;;1.52;;
42124;SDS011;27787;44.594;11.046;2022-08-11T19:14:31;2.50;;;1.52;;
42124;SDS011;27787;44.594;11.046;2022-08-11T19:17:40;9.18;;;1.50;;
42124;SDS011;27787;44.594;11.046;2022-08-11T19:20:45;5.47;;;1.40;;
42124;SDS011;27787;44.594;11.046;2022-08-11T19:23:49;4.95;;;1.65;;
42124;SDS011;27787;44.594;11.046;2022-08-11T19:26:57;6.13;;;1.85;;
42124;SDS011;27787;44.594;11.046;2022-08-11T19:30:01;2.70;;;1.70;;
42124;SDS011;27787;44.594;11.046;2022-08-11T19:33:05;3.90;;;1.95;;
42124;SDS011;27787;44.594;11.046;2022-08-11T19:36:08;5.82;;;1.75;;
42124;SDS011;27787;44.594;11.046;2022-08-11T19:39:12;2.53;;;1.30;;
42124;SDS011;27787;44.594;11.046;2022-08-11T19:42:15;1.55;;;1.17;;
42124;SDS011;27787;44.594;11.046;2022-08-11T19:45:19;2.88;;;1.35;;
42124;SDS011;27787;44.594;11.046;2022-08-11T19:48:22;6.97;;;2.00;;
42124;SDS011;27787;44.594;11.046;2022-08-11T19:51:28;3.20;;;2.00;;
42124;SDS011;27787;44.594;11.046;2022-08-11T19:54:32;4.10;;;1.58;;
42124;SDS011;27787;44.594;11.046;2022-08-11T19:57:36;6.68;;;1.33;;
42124;SDS011;27787;44.594;11.046;2022-08-11T20:00:41;3.60;;;1.60;;
42124;SDS011;27787;44.594;11.046;2022-08-11T20:03:44;3.10;;;1.10;;
42124;SDS011;27787;44.594;11.046;2022-08-11T20:06:47;3.65;;;1.23;;
42124;SDS011;27787;44.594;11.046;2022-08-11T20:09:52;2.40;;;1.48;;
42124;SDS011;27787;44.594;11.046;2022-08-11T20:12:56;4.85;;;1.60;;
42124;SDS011;27787;44.594;11.046;2022-08-11T20:15:59;3.25;;;1.35;;
42124;SDS011;27787;44.594;11.046;2022-08-11T20:19:04;2.60;;;1.73;;
42124;SDS011;27787;44.594;11.046;2022-08-11T20:22:09;2.38;;;1.63;;
42124;SDS011;27787;44.594;11.046;2022-08-11T20:25:13;5.30;;;1.90;;
42124;SDS011;27787;44.594;11.046;2022-08-11T20:28:18;2.72;;;1.67;;
42124;SDS011;27787;44.594;11.046;2022-08-11T20:31:21;6.47;;;1.55;;
42124;SDS011;27787;44.594;11.046;2022-08-11T20:34:24;3.40;;;1.85;;
42124;SDS011;27787;44.594;11.046;2022-08-11T20:37:27;3.35;;;1.65;;
42124;SDS011;27787;44.594;11.046;2022-08-11T20:40:31;4.45;;;1.95;;
42124;SDS011;27787;44.594;11.046;2022-08-11T20:43:36;3.72;;;1.90;;
42124;SDS011;27787;44.594;11.046;2022-08-11T20:46:41;3.30;;;1.98;;
42124;SDS011;27787;44.594;11.046;2022-08-11T20:49:45;10.98;;;2.03;;
42124;SDS011;27787;44.594;11.046;2022-08-11T20:52:49;5.15;;;1.60;;